CheckWX is a tool to help pilots better visualize weather data.  It is not intended as a substitute for an official pre-flight weather briefing.

12:39:11 UTC

EGAE METAR
City of Derry Airport
Derry, United Kingdom
Current

19 mins ago

EGAE 221220Z 17020G31KT 9999 FEW025 15/10 Q1023
Observed
Feb-22 @ 12:20 UTC
Wind
  • 170° at 20 KTS
  • Gusting to KTS
Visibility
10,000+ meters
Flight Rules
VFR
Cloud Levels
  • Few at 2,500' AGL
Temperature
15°C / 59°F
Dewpoint
10°C / 50°F
Humidity
72%
Altimeter
30.21" Hg
Pressure
1022.92 hPa
Previous

49 mins ago

EGAE 221150Z 18016G31KT 9999 FEW025 14/10 Q1023
Observed
Feb-22 @ 11:50 UTC
Wind
  • 180° at 16 KTS
  • Gusting to KTS
Visibility
10,000+ meters
Flight Rules
VFR
Cloud Levels
  • Few at 2,500' AGL
Temperature
14°C / 57°F
Dewpoint
10°C / 50°F
Humidity
77%
Altimeter
30.21" Hg
Pressure
1022.92 hPa
Previous

1 hour ago

EGAE 221120Z 18015G33KT 9999 FEW025 15/10 Q1023
Observed
Feb-22 @ 11:20 UTC
Wind
  • 180° at 15 KTS
  • Gusting to KTS
Visibility
10,000+ meters
Flight Rules
VFR
Cloud Levels
  • Few at 2,500' AGL
Temperature
15°C / 59°F
Dewpoint
10°C / 50°F
Humidity
72%
Altimeter
30.21" Hg
Pressure
1022.92 hPa